sensor_id;sensor_type;location;lat;lon;timestamp;pressure;altitude;pressure_sealevel;temperature;humidity
54038;BME280;39954;48.844;9.726;2023-05-01T00:00:59;96034.84;;;6.83;100.00
54038;BME280;39954;48.844;9.726;2023-05-01T00:02:04;96036.53;;;6.84;100.00
54038;BME280;39954;48.844;9.726;2023-05-01T00:03:09;96029.81;;;6.80;100.00
54038;BME280;39954;48.844;9.726;2023-05-01T00:04:11;96028.97;;;6.79;100.00
54038;BME280;39954;48.844;9.726;2023-05-01T00:05:16;96033.16;;;6.82;100.00
54038;BME280;39954;48.844;9.726;2023-05-01T00:06:18;96027.16;;;6.81;100.00
54038;BME280;39954;48.844;9.726;2023-05-01T00:07:23;96029.94;;;6.77;100.00
54038;BME280;39954;48.844;9.726;2023-05-01T00:08:26;96030.91;;;6.74;100.00
54038;BME280;39954;48.844;9.726;2023-05-01T00:09:31;96036.06;;;6.74;100.00
54038;BME280;39954;48.844;9.726;2023-05-01T00:10:34;96029.22;;;6.73;100.00
54038;BME280;39954;48.844;9.726;2023-05-01T00:11:38;96034.41;;;6.73;100.00
54038;BME280;39954;48.844;9.726;2023-05-01T00:12:41;96024.00;;;6.75;100.00
54038;BME280;39954;48.844;9.726;2023-05-01T00:13:45;96026.66;;;6.73;100.00
54038;BME280;39954;48.844;9.726;2023-05-01T00:14:47;96025.94;;;6.69;100.00
54038;BME280;39954;48.844;9.726;2023-05-01T00:15:52;96025.16;;;6.67;100.00
54038;BME280;39954;48.844;9.726;2023-05-01T00:16:55;96022.72;;;6.64;100.00
54038;BME280;39954;48.844;9.726;2023-05-01T00:18:02;96020.19;;;6.63;100.00
54038;BME280;39954;48.844;9.726;2023-05-01T00:19:04;96022.91;;;6.60;100.00
54038;BME280;39954;48.844;9.726;2023-05-01T00:20:10;96012.56;;;6.60;100.00
54038;BME280;39954;48.844;9.726;2023-05-01T00:21:12;96018.53;;;6.62;100.00
54038;BME280;39954;48.844;9.726;2023-05-01T00:22:17;96025.34;;;6.63;100.00
54038;BME280;39954;48.844;9.726;2023-05-01T00:23:19;96022.72;;;6.64;100.00
54038;BME280;39954;48.844;9.726;2023-05-01T00:24:24;96014.88;;;6.66;100.00
54038;BME280;39954;48.844;9.726;2023-05-01T00:25:27;96016.63;;;6.65;100.00
54038;BME280;39954;48.844;9.726;2023-05-01T00:26:32;96020.97;;;6.65;100.00
54038;BME280;39954;48.844;9.726;2023-05-01T00:27:34;96014.13;;;6.64;100.00
54038;BME280;39954;48.844;9.726;2023-05-01T00:28:38;96017.34;;;6.69;100.00
54038;BME280;39954;48.844;9.726;2023-05-01T00:29:41;96010.63;;;6.65;100.00
54038;BME280;39954;48.844;9.726;2023-05-01T00:30:45;96004.69;;;6.63;100.00
54038;BME280;39954;48.844;9.726;2023-05-01T00:31:48;96005.66;;;6.60;100.00
54038;BME280;39954;48.844;9.726;2023-05-01T00:32:53;96000.44;;;6.62;100.00
54038;BME280;39954;48.844;9.726;2023-05-01T00:33:58;96011.56;;;6.64;100.00
54038;BME280;39954;48.844;9.726;2023-05-01T00:35:03;96005.53;;;6.63;100.00
54038;BME280;39954;48.844;9.726;2023-05-01T00:36:05;96005.59;;;6.62;100.00
54038;BME280;39954;48.844;9.726;2023-05-01T00:37:10;95999.66;;;6.60;100.00
54038;BME280;39954;48.844;9.726;2023-05-01T00:38:12;96003.91;;;6.61;100.00
54038;BME280;39954;48.844;9.726;2023-05-01T00:39:17;95998.81;;;6.59;100.00
54038;BME280;39954;48.844;9.726;2023-05-01T00:40:19;95997.22;;;6.57;100.00
54038;BME280;39954;48.844;9.726;2023-05-01T00:41:24;95997.09;;;6.60;100.00
54038;BME280;39954;48.844;9.726;2023-05-01T00:42:26;96006.63;;;6.58;100.00
54038;BME280;39954;48.844;9.726;2023-05-01T00:43:31;95993.72;;;6.58;100.00
54038;BME280;39954;48.844;9.726;2023-05-01T00:44:34;95992.06;;;6.57;100.00
54038;BME280;39954;48.844;9.726;2023-05-01T00:45:42;95997.22;;;6.57;100.00
54038;BME280;39954;48.844;9.726;2023-05-01T00:46:45;95992.84;;;6.59;100.00
54038;BME280;39954;48.844;9.726;2023-05-01T00:47:50;95993.72;;;6.58;100.00
54038;BME280;39954;48.844;9.726;2023-05-01T00:48:53;95996.16;;;6.61;100.00
54038;BME280;39954;48.844;9.726;2023-05-01T00:50:00;95986.88;;;6.57;100.00
54038;BME280;39954;48.844;9.726;2023-05-01T00:51:04;95985.97;;;6.58;100.00
54038;BME280;39954;48.844;9.726;2023-05-01T00:52:11;95994.50;;;6.60;100.00
54038;BME280;39954;48.844;9.726;2023-05-01T00:53:13;95984.94;;;6.62;100.00
54038;BME280;39954;48.844;9.726;2023-05-01T00:54:19;95983.25;;;6.61;100.00
54038;BME280;39954;48.844;9.726;2023-05-01T00:55:22;95990.25;;;6.59;100.00
54038;BME280;39954;48.844;9.726;2023-05-01T00:56:27;95982.41;;;6.60;100.00
54038;BME280;39954;48.844;9.726;2023-05-01T00:57:32;95986.63;;;6.63;100.00
54038;BME280;39954;48.844;9.726;2023-05-01T00:58:34;95982.28;;;6.63;100.00
54038;BME280;39954;48.844;9.726;2023-05-01T00:59:39;95978.97;;;6.61;100.00
54038;BME280;39954;48.844;9.726;2023-05-01T01:00:42;95984.94;;;6.62;100.00
54038;BME280;39954;48.844;9.726;2023-05-01T01:01:48;95979.00;;;6.60;100.00
54038;BME280;39954;48.844;9.726;2023-05-01T01:02:51;95978.09;;;6.61;100.00
54038;BME280;39954;48.844;9.726;2023-05-01T01:03:56;95982.28;;;6.63;100.00
54038;BME280;39954;48.844;9.726;2023-05-01T01:05:01;95973.84;;;6.60;100.00
54038;BME280;39954;48.844;9.726;2023-05-01T01:06:16;95980.63;;;6.62;100.00
54038;BME280;39954;48.844;9.726;2023-05-01T01:07:28;95971.97;;;6.63;100.00
54038;BME280;39954;48.844;9.726;2023-05-01T01:08:39;95970.34;;;6.61;100.00
54038;BME280;39954;48.844;9.726;2023-05-01T01:09:58;95966.88;;;6.62;100.00
54038;BME280;39954;48.844;9.726;2023-05-01T01:11:14;95976.28;;;6.63;100.00
54038;BME280;39954;48.844;9.726;2023-05-01T01:12:25;95972.81;;;6.64;100.00
54038;BME280;39954;48.844;9.726;2023-05-01T01:13:35;95969.47;;;6.62;100.00
54038;BME280;39954;48.844;9.726;2023-05-01T01:14:43;95968.63;;;6.61;100.00
54038;BME280;39954;48.844;9.726;2023-05-01T01:15:58;95970.34;;;6.61;100.00
54038;BME280;39954;48.844;9.726;2023-05-01T01:17:11;95965.25;;;6.59;100.00
54038;BME280;39954;48.844;9.726;2023-05-01T01:18:21;95967.75;;;6.61;100.00
54038;BME280;39954;48.844;9.726;2023-05-01T01:19:52;95966.09;;;6.60;100.00
54038;BME280;39954;48.844;9.726;2023-05-01T01:21:07;95965.97;;;6.63;100.00
54038;BME280;39954;48.844;9.726;2023-05-01T01:22:20;95959.13;;;6.62;100.00
54038;BME280;39954;48.844;9.726;2023-05-01T01:23:35;95957.44;;;6.61;100.00
54038;BME280;39954;48.844;9.726;2023-05-01T01:24:55;95960.16;;;6.58;100.00
54038;BME280;39954;48.844;9.726;2023-05-01T01:26:10;95964.44;;;6.59;100.00
54038;BME280;39954;48.844;9.726;2023-05-01T01:29:21;95953.47;;;6.54;100.00
54038;BME280;39954;48.844;9.726;2023-05-01T01:30:51;95950.03;;;6.53;100.00
54038;BME280;39954;48.844;9.726;2023-05-01T01:32:10;95958.66;;;6.52;100.00
54038;BME280;39954;48.844;9.726;2023-05-01T01:33:41;95953.59;;;6.50;100.00
54038;BME280;39954;48.844;9.726;2023-05-01T01:34:53;95955.25;;;6.52;100.00
54038;BME280;39954;48.844;9.726;2023-05-01T01:36:01;95954.38;;;6.53;100.00
54038;BME280;39954;48.844;9.726;2023-05-01T01:37:12;95962.13;;;6.53;100.00
54038;BME280;39954;48.844;9.726;2023-05-01T01:38:22;95960.63;;;6.47;100.00
54038;BME280;39954;48.844;9.726;2023-05-01T01:39:36;95955.47;;;6.47;100.00
54038;BME280;39954;48.844;9.726;2023-05-01T01:40:54;95958.94;;;6.46;100.00
54038;BME280;39954;48.844;9.726;2023-05-01T01:42:04;95958.28;;;6.41;100.00
54038;BME280;39954;48.844;9.726;2023-05-01T01:43:11;95958.41;;;6.38;100.00
54038;BME280;39954;48.844;9.726;2023-05-01T01:44:27;95959.53;;;6.32;100.00
54038;BME280;39954;48.844;9.726;2023-05-01T01:45:36;95961.41;;;6.28;100.00
54038;BME280;39954;48.844;9.726;2023-05-01T01:46:43;95961.53;;;6.25;100.00
54038;BME280;39954;48.844;9.726;2023-05-01T01:47:46;95961.66;;;6.22;100.00
54038;BME280;39954;48.844;9.726;2023-05-01T01:48:55;95960.03;;;6.20;100.00
54038;BME280;39954;48.844;9.726;2023-05-01T01:50:00;95959.38;;;6.15;100.00
54038;BME280;39954;48.844;9.726;2023-05-01T01:51:10;95954.41;;;6.10;100.00
54038;BME280;39954;48.844;9.726;2023-05-01T01:52:15;95952.78;;;6.08;100.00
54038;BME280;39954;48.844;9.726;2023-05-01T01:53:22;95951.19;;;6.05;100.00
54038;BME280;39954;48.844;9.726;2023-05-01T01:54:30;95957.38;;;6.01;100.00
54038;BME280;39954;48.844;9.726;2023-05-01T01:55:37;95954.00;;;5.99;100.00
54038;BME280;39954;48.844;9.726;2023-05-01T01:56:41;95955.75;;;5.98;100.00
54038;BME280;39954;48.844;9.726;2023-05-01T01:57:48;95955.84;;;5.97;100.00
54038;BME280;39954;48.844;9.726;2023-05-01T01:58:51;95951.63;;;5.94;100.00
54038;BME280;39954;48.844;9.726;2023-05-01T01:59:57;95944.78;;;5.93;100.00
54038;BME280;39954;48.844;9.726;2023-05-01T02:01:00;95947.41;;;5.92;100.00
54038;BME280;39954;48.844;9.726;2023-05-01T02:02:06;95944.78;;;5.93;100.00
54038;BME280;39954;48.844;9.726;2023-05-01T02:03:10;95941.41;;;5.91;100.00
54038;BME280;39954;48.844;9.726;2023-05-01T02:04:20;95956.88;;;5.91;100.00
54038;BME280;39954;48.844;9.726;2023-05-01T02:05:24;95944.88;;;5.90;100.00
54038;BME280;39954;48.844;9.726;2023-05-01T02:06:31;95945.00;;;5.87;100.00
54038;BME280;39954;48.844;9.726;2023-05-01T02:07:36;95946.69;;;5.88;100.00
54038;BME280;39954;48.844;9.726;2023-05-01T02:08:46;95948.28;;;5.91;100.00
54038;BME280;39954;48.844;9.726;2023-05-01T02:09:50;95950.88;;;5.91;100.00
54038;BME280;39954;48.844;9.726;2023-05-01T02:10:58;95944.88;;;5.90;100.00
54038;BME280;39954;48.844;9.726;2023-05-01T02:12:04;95935.34;;;5.92;100.00
54038;BME280;39954;48.844;9.726;2023-05-01T02:13:11;95936.19;;;5.93;100.00
54038;BME280;39954;48.844;9.726;2023-05-01T02:14:15;95926.78;;;5.92;100.00
54038;BME280;39954;48.844;9.726;2023-05-01T02:15:22;95929.41;;;5.90;100.00
54038;BME280;39954;48.844;9.726;2023-05-01T02:16:26;95921.66;;;5.90;100.00
54038;BME280;39954;48.844;9.726;2023-05-01T02:17:31;95926.91;;;5.89;100.00
54038;BME280;39954;48.844;9.726;2023-05-01T02:18:35;95926.06;;;5.88;100.00
54038;BME280;39954;48.844;9.726;2023-05-01T02:19:43;95921.75;;;5.89;100.00
54038;BME280;39954;48.844;9.726;2023-05-01T02:20:46;95928.66;;;5.88;100.00
54038;BME280;39954;48.844;9.726;2023-05-01T02:21:52;95920.97;;;5.87;100.00
54038;BME280;39954;48.844;9.726;2023-05-01T02:22:57;95926.06;;;5.88;100.00
54038;BME280;39954;48.844;9.726;2023-05-01T02:24:04;95921.88;;;5.86;100.00
54038;BME280;39954;48.844;9.726;2023-05-01T02:25:09;95922.63;;;5.88;100.00
54038;BME280;39954;48.844;9.726;2023-05-01T02:26:17;95924.25;;;5.90;100.00
54038;BME280;39954;48.844;9.726;2023-05-01T02:27:23;95915.53;;;5.94;100.00
54038;BME280;39954;48.844;9.726;2023-05-01T02:28:30;95922.34;;;5.95;100.00
54038;BME280;39954;48.844;9.726;2023-05-01T02:29:34;95915.41;;;5.97;100.00
54038;BME280;39954;48.844;9.726;2023-05-01T02:30:39;95922.94;;;6.02;100.00
54038;BME280;39954;48.844;9.726;2023-05-01T02:31:41;95920.28;;;6.03;100.00
54038;BME280;39954;48.844;9.726;2023-05-01T02:32:45;95916.06;;;6.02;100.00
54038;BME280;39954;48.844;9.726;2023-05-01T02:33:48;95916.81;;;6.04;100.00
54038;BME280;39954;48.844;9.726;2023-05-01T02:34:55;95916.75;;;6.06;100.00
54038;BME280;39954;48.844;9.726;2023-05-01T02:35:58;95909.97;;;6.03;100.00
54038;BME280;39954;48.844;9.726;2023-05-01T02:37:03;95918.50;;;6.05;100.00
54038;BME280;39954;48.844;9.726;2023-05-01T02:38:07;95909.28;;;6.00;100.00
54038;BME280;39954;48.844;9.726;2023-05-01T02:39:13;95909.19;;;6.01;100.00
54038;BME280;39954;48.844;9.726;2023-05-01T02:40:15;95906.63;;;6.01;100.00
54038;BME280;39954;48.844;9.726;2023-05-01T02:41:21;95909.06;;;6.04;100.00
54038;BME280;39954;48.844;9.726;2023-05-01T02:42:24;95906.44;;;6.06;100.00
54038;BME280;39954;48.844;9.726;2023-05-01T02:43:31;95909.97;;;6.03;100.00
54038;BME280;39954;48.844;9.726;2023-05-01T02:44:38;95905.59;;;6.05;100.00
54038;BME280;39954;48.844;9.726;2023-05-01T02:45:44;95906.44;;;6.06;100.00
54038;BME280;39954;48.844;9.726;2023-05-01T02:46:49;95904.69;;;6.07;100.00
54038;BME280;39954;48.844;9.726;2023-05-01T02:47:57;95906.34;;;6.08;100.00
54038;BME280;39954;48.844;9.726;2023-05-01T02:49:02;95901.97;;;6.10;100.00
54038;BME280;39954;48.844;9.726;2023-05-01T02:50:10;95894.19;;;6.11;100.00
54038;BME280;39954;48.844;9.726;2023-05-01T02:51:13;95894.84;;;6.16;100.00
54038;BME280;39954;48.844;9.726;2023-05-01T02:52:18;95897.34;;;6.18;100.00
54038;BME280;39954;48.844;9.726;2023-05-01T02:53:21;95896.50;;;6.17;100.00
54038;BME280;39954;48.844;9.726;2023-05-01T02:54:26;95903.31;;;6.18;100.00
54038;BME280;39954;48.844;9.726;2023-05-01T02:55:29;95897.28;;;6.19;100.00
54038;BME280;39954;48.844;9.726;2023-05-01T02:56:34;95895.44;;;6.21;100.00
54038;BME280;39954;48.844;9.726;2023-05-01T02:57:36;95896.38;;;6.20;100.00
54038;BME280;39954;48.844;9.726;2023-05-01T02:58:42;95893.72;;;6.22;100.00
54038;BME280;39954;48.844;9.726;2023-05-01T02:59:45;95894.63;;;6.21;100.00
54038;BME280;39954;48.844;9.726;2023-05-01T03:00:50;95893.59;;;6.25;100.00
54038;BME280;39954;48.844;9.726;2023-05-01T03:01:52;95892.63;;;6.27;100.00
54038;BME280;39954;48.844;9.726;2023-05-01T03:02:57;95884.81;;;6.29;100.00
54038;BME280;39954;48.844;9.726;2023-05-01T03:03:59;95887.13;;;6.35;100.00
54038;BME280;39954;48.844;9.726;2023-05-01T03:05:05;95887.13;;;6.35;100.00
54038;BME280;39954;48.844;9.726;2023-05-01T03:06:10;95888.16;;;6.31;100.00
54038;BME280;39954;48.844;9.726;2023-05-01T03:07:15;95885.50;;;6.33;100.00
54038;BME280;39954;48.844;9.726;2023-05-01T03:08:17;95885.63;;;6.30;100.00
54038;BME280;39954;48.844;9.726;2023-05-01T03:09:23;95888.16;;;6.31;100.00
54038;BME280;39954;48.844;9.726;2023-05-01T03:10:25;95893.34;;;6.31;100.00
54038;BME280;39954;48.844;9.726;2023-05-01T03:11:29;95891.44;;;6.35;100.00
54038;BME280;39954;48.844;9.726;2023-05-01T03:12:32;95895.78;;;6.34;100.00
54038;BME280;39954;48.844;9.726;2023-05-01T03:13:37;95890.53;;;6.36;100.00
54038;BME280;39954;48.844;9.726;2023-05-01T03:14:39;95888.09;;;6.33;100.00
54038;BME280;39954;48.844;9.726;2023-05-01T03:15:44;95885.38;;;6.36;100.00
54038;BME280;39954;48.844;9.726;2023-05-01T03:16:46;95887.91;;;6.37;100.00
54038;BME280;39954;48.844;9.726;2023-05-01T03:17:50;95886.22;;;6.36;100.00
54038;BME280;39954;48.844;9.726;2023-05-01T03:18:53;95883.56;;;6.38;100.00
54038;BME280;39954;48.844;9.726;2023-05-01T03:19:57;95889.50;;;6.40;100.00
54038;BME280;39954;48.844;9.726;2023-05-01T03:21:00;95882.59;;;6.40;100.00
54038;BME280;39954;48.844;9.726;2023-05-01T03:22:07;95876.59;;;6.40;100.00
54038;BME280;39954;48.844;9.726;2023-05-01T03:23:09;95880.78;;;6.42;100.00
54038;BME280;39954;48.844;9.726;2023-05-01T03:24:14;95877.31;;;6.43;100.00
54038;BME280;39954;48.844;9.726;2023-05-01T03:25:16;95880.78;;;6.42;100.00
54038;BME280;39954;48.844;9.726;2023-05-01T03:26:21;95880.03;;;6.40;100.00
54038;BME280;39954;48.844;9.726;2023-05-01T03:27:23;95881.72;;;6.41;100.00
54038;BME280;39954;48.844;9.726;2023-05-01T03:28:28;95881.72;;;6.41;100.00
54038;BME280;39954;48.844;9.726;2023-05-01T03:29:30;95879.00;;;6.44;100.00
54038;BME280;39954;48.844;9.726;2023-05-01T03:30:35;95878.84;;;6.47;100.00
54038;BME280;39954;48.844;9.726;2023-05-01T03:31:37;95884.06;;;6.46;100.00
54038;BME280;39954;48.844;9.726;2023-05-01T03:32:42;95875.38;;;6.48;100.00
54038;BME280;39954;48.844;9.726;2023-05-01T03:33:44;95872.63;;;6.52;100.00
54038;BME280;39954;48.844;9.726;2023-05-01T03:34:49;95877.75;;;6.53;100.00
54038;BME280;39954;48.844;9.726;2023-05-01T03:35:58;95866.38;;;6.57;100.00
54038;BME280;39954;48.844;9.726;2023-05-01T03:37:07;95874.81;;;6.61;100.00
54038;BME280;39954;48.844;9.726;2023-05-01T03:38:12;95878.03;;;6.66;100.00
54038;BME280;39954;48.844;9.726;2023-05-01T03:39:14;95877.97;;;6.67;100.00
54038;BME280;39954;48.844;9.726;2023-05-01T03:40:19;95871.75;;;6.71;100.00
54038;BME280;39954;48.844;9.726;2023-05-01T03:41:22;95871.69;;;6.73;100.00
54038;BME280;39954;48.844;9.726;2023-05-01T03:42:26;95871.69;;;6.73;100.00
54038;BME280;39954;48.844;9.726;2023-05-01T03:43:29;95868.13;;;6.76;100.00
54038;BME280;39954;48.844;9.726;2023-05-01T03:44:33;95871.34;;;6.81;100.00
54038;BME280;39954;48.844;9.726;2023-05-01T03:45:35;95869.75;;;6.78;100.00
54038;BME280;39954;48.844;9.726;2023-05-01T03:46:42;95870.59;;;6.79;100.00
54038;BME280;39954;48.844;9.726;2023-05-01T03:47:47;95872.25;;;6.80;100.00
54038;BME280;39954;48.844;9.726;2023-05-01T03:48:49;95870.50;;;6.80;100.00
54038;BME280;39954;48.844;9.726;2023-05-01T03:49:54;95870.44;;;6.82;100.00
54038;BME280;39954;48.844;9.726;2023-05-01T03:50:56;95869.47;;;6.84;100.00
54038;BME280;39954;48.844;9.726;2023-05-01T03:52:01;95869.38;;;6.86;100.00
54038;BME280;39954;48.844;9.726;2023-05-01T03:53:06;95865.91;;;6.87;100.00
54038;BME280;39954;48.844;9.726;2023-05-01T03:54:11;95869.03;;;6.93;100.00
54038;BME280;39954;48.844;9.726;2023-05-01T03:55:13;95857.94;;;6.91;100.00
54038;BME280;39954;48.844;9.726;2023-05-01T03:56:18;95858.66;;;6.95;100.00
54038;BME280;39954;48.844;9.726;2023-05-01T03:57:20;95862.94;;;6.94;100.00
54038;BME280;39954;48.844;9.726;2023-05-01T03:58:26;95860.44;;;6.93;100.00
54038;BME280;39954;48.844;9.726;2023-05-01T03:59:30;95853.63;;;6.92;100.00
54038;BME280;39954;48.844;9.726;2023-05-01T04:00:33;95862.19;;;6.92;100.00
54038;BME280;39954;48.844;9.726;2023-05-01T04:01:38;95862.94;;;6.94;100.00
54038;BME280;39954;48.844;9.726;2023-05-01T04:02:40;95862.94;;;6.94;100.00
54038;BME280;39954;48.844;9.726;2023-05-01T04:03:45;95859.34;;;6.99;100.00
54038;BME280;39954;48.844;9.726;2023-05-01T04:04:49;95853.34;;;6.98;100.00
54038;BME280;39954;48.844;9.726;2023-05-01T04:05:54;95858.50;;;6.98;100.00
54038;BME280;39954;48.844;9.726;2023-05-01T04:06:56;95860.25;;;6.98;100.00
54038;BME280;39954;48.844;9.726;2023-05-01T04:08:01;95854.16;;;6.99;100.00
54038;BME280;39954;48.844;9.726;2023-05-01T04:09:07;95858.34;;;7.01;100.00
54038;BME280;39954;48.844;9.726;2023-05-01T04:10:12;95858.50;;;6.98;100.00
54038;BME280;39954;48.844;9.726;2023-05-01T04:11:15;95859.47;;;6.95;100.00
54038;BME280;39954;48.844;9.726;2023-05-01T04:12:20;95854.03;;;7.02;100.00
54038;BME280;39954;48.844;9.726;2023-05-01T04:13:22;95855.69;;;7.03;100.00
54038;BME280;39954;48.844;9.726;2023-05-01T04:14:27;95859.03;;;7.05;100.00
54038;BME280;39954;48.844;9.726;2023-05-01T04:15:29;95853.00;;;7.06;100.00
54038;BME280;39954;48.844;9.726;2023-05-01T04:16:34;95855.69;;;7.03;100.00
54038;BME280;39954;48.844;9.726;2023-05-01T04:17:37;95848.56;;;7.08;100.00
54038;BME280;39954;48.844;9.726;2023-05-01T04:18:44;95849.34;;;7.10;100.00
54038;BME280;39954;48.844;9.726;2023-05-01T04:19:46;95848.41;;;7.11;100.00
54038;BME280;39954;48.844;9.726;2023-05-01T04:20:51;95848.41;;;7.11;100.00
54038;BME280;39954;48.844;9.726;2023-05-01T04:21:53;95841.44;;;7.13;100.00
54038;BME280;39954;48.844;9.726;2023-05-01T04:22:58;95853.44;;;7.14;100.00
54038;BME280;39954;48.844;9.726;2023-05-01T04:24:00;95848.28;;;7.14;100.00
54038;BME280;39954;48.844;9.726;2023-05-01T04:25:08;95853.31;;;7.17;100.00
54038;BME280;39954;48.844;9.726;2023-05-01T04:26:11;95841.28;;;7.16;100.00
54038;BME280;39954;48.844;9.726;2023-05-01T04:27:16;95852.25;;;7.21;100.00
54038;BME280;39954;48.844;9.726;2023-05-01T04:28:20;95847.91;;;7.22;100.00
54038;BME280;39954;48.844;9.726;2023-05-01T04:29:25;95847.03;;;7.23;100.00
54038;BME280;39954;48.844;9.726;2023-05-01T04:30:29;95850.34;;;7.25;100.00
54038;BME280;39954;48.844;9.726;2023-05-01T04:31:32;95849.38;;;7.27;100.00
54038;BME280;39954;48.844;9.726;2023-05-01T04:32:37;95846.72;;;7.29;100.00
54038;BME280;39954;48.844;9.726;2023-05-01T04:33:39;95849.31;;;7.29;100.00
54038;BME280;39954;48.844;9.726;2023-05-01T04:34:43;95849.16;;;7.32;100.00
54038;BME280;39954;48.844;9.726;2023-05-01T04:35:46;95841.47;;;7.30;100.00
54038;BME280;39954;48.844;9.726;2023-05-01T04:36:50;95844.00;;;7.32;100.00
54038;BME280;39954;48.844;9.726;2023-05-01T04:37:52;95840.50;;;7.33;100.00
54038;BME280;39954;48.844;9.726;2023-05-01T04:38:57;95839.59;;;7.34;100.00
54038;BME280;39954;48.844;9.726;2023-05-01T04:39:59;95836.09;;;7.35;100.00
54038;BME280;39954;48.844;9.726;2023-05-01T04:41:07;95846.50;;;7.33;100.00
54038;BME280;39954;48.844;9.726;2023-05-01T04:42:09;95840.44;;;7.34;100.00
54038;BME280;39954;48.844;9.726;2023-05-01T04:43:14;95837.59;;;7.39;100.00
54038;BME280;39954;48.844;9.726;2023-05-01T04:44:16;95836.78;;;7.38;100.00
54038;BME280;39954;48.844;9.726;2023-05-01T04:45:21;95846.97;;;7.42;100.00
54038;BME280;39954;48.844;9.726;2023-05-01T04:46:23;95841.63;;;7.45;100.00
54038;BME280;39954;48.844;9.726;2023-05-01T04:47:29;95840.81;;;7.44;100.00
54038;BME280;39954;48.844;9.726;2023-05-01T04:48:31;95844.06;;;7.48;100.00
54038;BME280;39954;48.844;9.726;2023-05-01T04:49:36;95844.84;;;7.50;100.00
54038;BME280;39954;48.844;9.726;2023-05-01T04:50:38;95847.44;;;7.50;100.00
54038;BME280;39954;48.844;9.726;2023-05-01T04:51:43;95847.28;;;7.53;100.00
54038;BME280;39954;48.844;9.726;2023-05-01T04:52:46;95843.81;;;7.54;100.00
54038;BME280;39954;48.844;9.726;2023-05-01T04:53:51;95843.72;;;7.55;100.00
54038;BME280;39954;48.844;9.726;2023-05-01T04:54:53;95845.47;;;7.55;100.00
54038;BME280;39954;48.844;9.726;2023-05-01T04:55:58;95845.31;;;7.58;100.00
54038;BME280;39954;48.844;9.726;2023-05-01T04:57:03;95844.41;;;7.59;100.00
54038;BME280;39954;48.844;9.726;2023-05-01T04:58:08;95843.56;;;7.58;100.00
54038;BME280;39954;48.844;9.726;2023-05-01T04:59:12;95844.47;;;7.57;100.00
54038;BME280;39954;48.844;9.726;2023-05-01T05:00:15;95840.09;;;7.59;100.00
54038;BME280;39954;48.844;9.726;2023-05-01T05:01:20;95844.53;;;7.56;100.00
54038;BME280;39954;48.844;9.726;2023-05-01T05:02:22;95852.09;;;7.60;100.00
54038;BME280;39954;48.844;9.726;2023-05-01T05:03:27;95849.34;;;7.63;100.00
54038;BME280;39954;48.844;9.726;2023-05-01T05:04:30;95848.56;;;7.61;100.00
54038;BME280;39954;48.844;9.726;2023-05-01T05:05:35;95849.44;;;7.62;100.00
54038;BME280;39954;48.844;9.726;2023-05-01T05:06:37;95850.34;;;7.61;100.00
54038;BME280;39954;48.844;9.726;2023-05-01T05:07:42;95853.91;;;7.58;100.00
54038;BME280;39954;48.844;9.726;2023-05-01T05:08:44;95852.03;;;7.62;100.00
54038;BME280;39954;48.844;9.726;2023-05-01T05:09:53;95854.38;;;7.67;100.00
54038;BME280;39954;48.844;9.726;2023-05-01T05:10:56;95856.06;;;7.68;100.00
54038;BME280;39954;48.844;9.726;2023-05-01T05:12:04;95852.56;;;7.69;100.00
54038;BME280;39954;48.844;9.726;2023-05-01T05:13:06;95854.16;;;7.71;100.00
54038;BME280;39954;48.844;9.726;2023-05-01T05:14:11;95858.34;;;7.74;100.00
54038;BME280;39954;48.844;9.726;2023-05-01T05:15:16;95858.25;;;7.75;100.00
54038;BME280;39954;48.844;9.726;2023-05-01T05:16:18;95856.44;;;7.77;100.00
54038;BME280;39954;48.844;9.726;2023-05-01T05:17:23;95851.03;;;7.82;100.00
54038;BME280;39954;48.844;9.726;2023-05-01T05:18:25;95853.53;;;7.83;100.00
54038;BME280;39954;48.844;9.726;2023-05-01T05:19:30;95855.91;;;7.88;100.00
54038;BME280;39954;48.844;9.726;2023-05-01T05:20:37;95853.22;;;7.90;100.00
54038;BME280;39954;48.844;9.726;2023-05-01T05:21:41;95846.22;;;7.92;100.00
54038;BME280;39954;48.844;9.726;2023-05-01T05:22:44;95854.75;;;7.94;100.00
54038;BME280;39954;48.844;9.726;2023-05-01T05:23:48;95852.19;;;7.94;100.00
54038;BME280;39954;48.844;9.726;2023-05-01T05:24:52;95852.94;;;7.96;100.00
54038;BME280;39954;48.844;9.726;2023-05-01T05:26:00;95855.38;;;7.99;100.00
54038;BME280;39954;48.844;9.726;2023-05-01T05:27:06;95854.28;;;8.03;100.00
54038;BME280;39954;48.844;9.726;2023-05-01T05:28:10;95848.22;;;8.04;100.00
54038;BME280;39954;48.844;9.726;2023-05-01T05:29:13;95848.97;;;8.06;100.00
54038;BME280;39954;48.844;9.726;2023-05-01T05:30:18;95844.56;;;8.08;100.00
54038;BME280;39954;48.844;9.726;2023-05-01T05:31:20;95849.72;;;8.08;100.00
54038;BME280;39954;48.844;9.726;2023-05-01T05:32:25;95844.22;;;8.14;100.00
54038;BME280;39954;48.844;9.726;2023-05-01T05:33:27;95845.84;;;8.17;100.00
54038;BME280;39954;48.844;9.726;2023-05-01T05:34:32;95842.25;;;8.19;100.00
54038;BME280;39954;48.844;9.726;2023-05-01T05:35:34;95842.19;;;8.21;100.00
54038;BME280;39954;48.844;9.726;2023-05-01T05:36:38;95843.78;;;8.23;100.00
54038;BME280;39954;48.844;9.726;2023-05-01T05:37:41;95843.19;;;8.18;100.00
54038;BME280;39954;48.844;9.726;2023-05-01T05:38:46;95840.28;;;8.24;100.00
54038;BME280;39954;48.844;9.726;2023-05-01T05:39:49;95839.88;;;8.32;100.00
54038;BME280;39954;48.844;9.726;2023-05-01T05:40:54;95839.72;;;8.35;100.00
54038;BME280;39954;48.844;9.726;2023-05-01T05:41:56;95839.72;;;8.35;100.00
54038;BME280;39954;48.844;9.726;2023-05-01T05:43:03;95842.22;;;8.37;100.00
54038;BME280;39954;48.844;9.726;2023-05-01T05:44:05;95836.84;;;8.41;100.00
54038;BME280;39954;48.844;9.726;2023-05-01T05:45:10;95842.53;;;8.48;100.00
54038;BME280;39954;48.844;9.726;2023-05-01T05:46:13;95848.41;;;8.51;100.00
54038;BME280;39954;48.844;9.726;2023-05-01T05:47:18;95844.78;;;8.54;100.00
54038;BME280;39954;48.844;9.726;2023-05-01T05:48:20;95836.72;;;8.60;100.00